createdAt,value
2018-07-21T00:01:47.947Z,17.96
2018-07-21T00:04:18.872Z,17.74
2018-07-21T00:06:50.326Z,17.79
2018-07-21T00:09:21.354Z,18.19
2018-07-21T00:11:52.620Z,18.18
2018-07-21T00:14:23.629Z,17.82
2018-07-21T00:16:54.722Z,17.53
2018-07-21T00:22:29.540Z,17.36
2018-07-21T00:25:00.390Z,17.24
2018-07-21T00:27:31.590Z,17.32
2018-07-21T00:30:02.895Z,17.73
2018-07-21T00:32:34.113Z,17.65
2018-07-21T00:35:05.480Z,17.72
2018-07-21T00:37:36.362Z,17.69
2018-07-21T00:40:12.107Z,17.54
2018-07-21T00:42:43.106Z,17.50
2018-07-21T00:45:14.240Z,17.61
2018-07-21T00:47:46.166Z,17.57
2018-07-21T00:50:17.180Z,17.60
2018-07-21T00:52:48.143Z,17.61
2018-07-21T00:55:19.158Z,17.49
2018-07-21T00:57:50.123Z,17.62
2018-07-21T01:00:21.130Z,17.51
2018-07-21T01:02:52.282Z,17.50
2018-07-21T01:05:23.810Z,17.47
2018-07-21T01:07:54.967Z,17.34
2018-07-21T01:10:26.505Z,17.29
2018-07-21T01:12:57.567Z,17.32
2018-07-21T01:15:28.913Z,17.24
2018-07-21T01:17:59.819Z,17.28
2018-07-21T01:20:31.331Z,17.28
2018-07-21T01:23:03.282Z,17.28
2018-07-21T01:25:37.485Z,17.29
2018-07-21T01:28:10.037Z,17.21
2018-07-21T01:30:41.058Z,17.30
2018-07-21T01:33:12.911Z,17.24
2018-07-21T01:35:43.946Z,16.99
2018-07-21T01:38:15.188Z,16.76
2018-07-21T01:40:46.251Z,16.87
2018-07-21T01:43:17.408Z,17.17
2018-07-21T01:45:48.411Z,17.25
2018-07-21T01:48:19.351Z,17.16
2018-07-21T01:50:50.270Z,16.96
2018-07-21T01:53:25.870Z,16.83
2018-07-21T01:55:57.352Z,16.73
2018-07-21T01:58:28.426Z,16.68
2018-07-21T02:00:59.572Z,16.62
2018-07-21T02:03:30.855Z,16.67
2018-07-21T02:06:01.854Z,16.51
2018-07-21T02:08:34.291Z,16.42
2018-07-21T02:11:05.639Z,16.71
2018-07-21T02:13:37.676Z,16.73
2018-07-21T02:16:10.116Z,16.65
2018-07-21T02:18:41.105Z,16.70
2018-07-21T02:21:12.150Z,16.79
2018-07-21T02:23:43.524Z,16.82
2018-07-21T02:26:14.538Z,16.66
2018-07-21T02:28:45.732Z,16.70
2018-07-21T02:31:16.604Z,16.58
2018-07-21T02:33:47.670Z,16.55
2018-07-21T02:36:19.081Z,16.60
2018-07-21T02:38:50.150Z,16.61
2018-07-21T02:41:21.468Z,16.63
2018-07-21T02:43:52.375Z,16.41
2018-07-21T02:46:23.400Z,16.41
2018-07-21T02:48:54.409Z,16.57
2018-07-21T02:51:25.510Z,16.61
2018-07-21T02:53:56.563Z,16.84
2018-07-21T02:56:27.527Z,16.95
2018-07-21T02:58:58.566Z,16.86
2018-07-21T03:01:29.500Z,16.44
2018-07-21T03:04:00.543Z,16.54
2018-07-21T03:06:31.507Z,16.70
2018-07-21T03:09:02.685Z,16.63
2018-07-21T03:11:33.643Z,16.75
2018-07-21T03:14:04.691Z,16.47
2018-07-21T03:16:35.630Z,16.80
2018-07-21T03:19:06.456Z,16.88
2018-07-21T03:21:37.403Z,16.66
2018-07-21T03:24:08.363Z,16.59
2018-07-21T03:26:39.303Z,16.60
2018-07-21T03:29:10.417Z,16.75
2018-07-21T03:31:41.355Z,16.64
2018-07-21T03:34:12.359Z,16.67
2018-07-21T03:36:43.338Z,16.69
2018-07-21T03:39:14.410Z,16.80
2018-07-21T03:41:45.608Z,16.82
2018-07-21T03:44:17.119Z,16.83
2018-07-21T03:46:48.387Z,16.91
2018-07-21T03:49:19.456Z,16.79
2018-07-21T03:51:50.356Z,16.90
2018-07-21T03:54:21.459Z,16.63
2018-07-21T03:56:52.619Z,16.82
2018-07-21T03:59:24.581Z,16.63
2018-07-21T04:01:55.864Z,16.53
2018-07-21T04:04:28.575Z,16.67
2018-07-21T04:06:59.701Z,16.83
2018-07-21T04:09:41.699Z,16.85
2018-07-21T04:12:12.523Z,16.87
2018-07-21T04:14:43.440Z,16.84
2018-07-21T04:17:22.983Z,16.93
2018-07-21T04:19:54.226Z,17.12
2018-07-21T04:22:25.881Z,17.08
2018-07-21T04:24:57.074Z,16.97
2018-07-21T04:27:28.075Z,17.02
2018-07-21T04:29:59.052Z,17.14
2018-07-21T04:32:30.059Z,17.03
2018-07-21T04:35:01.142Z,17.29
2018-07-21T04:37:32.220Z,17.31
2018-07-21T04:40:03.794Z,17.31
2018-07-21T04:42:34.795Z,17.11
2018-07-21T04:45:05.735Z,17.06
2018-07-21T04:47:36.733Z,17.13
2018-07-21T04:50:10.152Z,17.23
2018-07-21T04:52:41.026Z,17.32
2018-07-21T04:55:13.387Z,17.45
2018-07-21T04:57:44.353Z,17.42
2018-07-21T05:00:15.618Z,17.36
2018-07-21T05:02:47.470Z,17.42
2018-07-21T05:05:18.423Z,17.74
2018-07-21T05:07:49.562Z,17.47
2018-07-21T05:10:20.487Z,17.53
2018-07-21T05:12:51.632Z,17.58
2018-07-21T05:15:22.750Z,17.59
2018-07-21T05:17:53.854Z,17.62
2018-07-21T05:20:24.724Z,17.55
2018-07-21T05:22:55.765Z,17.62
2018-07-21T05:25:28.347Z,17.62
2018-07-21T05:28:00.267Z,17.65
2018-07-21T05:30:32.080Z,17.77
2018-07-21T05:33:03.780Z,17.82
2018-07-21T05:35:35.774Z,17.69
2018-07-21T05:38:07.744Z,17.84
2018-07-21T05:40:39.864Z,17.95
2018-07-21T05:43:12.596Z,18.00
2018-07-21T05:45:43.952Z,18.11
2018-07-21T05:48:14.847Z,18.10
2018-07-21T05:50:45.811Z,18.07
2018-07-21T05:53:16.956Z,18.02
2018-07-21T05:55:47.891Z,18.16
2018-07-21T05:58:18.954Z,18.16
2018-07-21T06:00:50.119Z,18.23
2018-07-21T06:03:21.364Z,18.28
2018-07-21T06:05:52.360Z,18.35
2018-07-21T06:08:26.151Z,18.51
2018-07-21T06:10:57.164Z,18.57
2018-07-21T06:13:28.390Z,18.44
2018-07-21T06:15:59.581Z,18.45
2018-07-21T06:18:30.696Z,18.72
2018-07-21T06:21:02.191Z,19.10
2018-07-21T06:23:34.503Z,18.99
2018-07-21T06:26:05.502Z,18.90
2018-07-21T06:28:36.580Z,18.81
2018-07-21T06:31:07.744Z,18.91
2018-07-21T06:33:38.791Z,18.83
2018-07-21T06:36:11.226Z,18.77
2018-07-21T06:38:42.815Z,18.82
2018-07-21T06:41:13.903Z,18.85
2018-07-21T06:43:44.982Z,18.81
2018-07-21T06:46:15.994Z,18.88
2018-07-21T06:48:46.972Z,18.87
2018-07-21T06:51:18.931Z,18.81
2018-07-21T06:53:49.975Z,18.63
2018-07-21T06:56:20.952Z,18.45
2018-07-21T06:58:52.276Z,18.07
2018-07-21T07:01:23.585Z,18.09
2018-07-21T07:03:54.688Z,17.90
2018-07-21T07:06:26.343Z,18.13
2018-07-21T07:08:57.764Z,17.96
2018-07-21T07:11:29.118Z,17.91
2018-07-21T07:14:00.170Z,17.94
2018-07-21T07:16:31.553Z,17.80
2018-07-21T07:19:02.838Z,17.81
2018-07-21T07:21:34.024Z,17.69
2018-07-21T07:24:04.956Z,17.65
2018-07-21T07:26:35.932Z,17.59
2018-07-21T07:29:07.039Z,17.52
2018-07-21T07:31:38.083Z,17.77
2018-07-21T07:34:09.185Z,17.82
2018-07-21T07:36:40.317Z,17.90
2018-07-21T07:39:12.061Z,17.95
2018-07-21T07:41:42.887Z,17.65
2018-07-21T07:44:13.801Z,17.64
2018-07-21T07:46:45.326Z,17.64
2018-07-21T07:49:16.491Z,17.66
2018-07-21T07:51:47.373Z,17.68
2018-07-21T07:54:19.024Z,17.59
2018-07-21T07:56:50.088Z,17.66
2018-07-21T07:59:21.168Z,17.62
2018-07-21T08:01:52.736Z,17.73
2018-07-21T08:04:23.815Z,17.81
2018-07-21T08:06:54.848Z,17.78
2018-07-21T08:09:26.833Z,17.85
2018-07-21T08:11:58.032Z,17.91
2018-07-21T08:14:29.308Z,17.97
2018-07-21T08:17:00.323Z,17.95
2018-07-21T08:19:31.383Z,17.96
2018-07-21T08:22:03.564Z,17.97
2018-07-21T08:24:34.568Z,17.88
2018-07-21T08:27:05.380Z,18.01
2018-07-21T08:29:36.383Z,17.96
2018-07-21T08:32:07.695Z,17.96
2018-07-21T08:34:38.573Z,17.90
2018-07-21T08:37:10.026Z,18.01
2018-07-21T08:39:41.181Z,18.11
2018-07-21T08:42:12.397Z,18.25
2018-07-21T08:44:43.408Z,18.27
2018-07-21T08:47:15.065Z,18.28
2018-07-21T08:49:47.143Z,18.30
2018-07-21T08:52:18.047Z,18.31
2018-07-21T08:54:50.618Z,18.31
2018-07-21T08:57:21.707Z,18.19
2018-07-21T08:59:52.923Z,18.11
2018-07-21T09:02:23.967Z,18.02
2018-07-21T09:04:55.234Z,18.11
2018-07-21T09:07:26.034Z,18.25
2018-07-21T09:09:57.255Z,18.43
2018-07-21T09:12:28.551Z,18.54
2018-07-21T09:14:59.667Z,18.54
2018-07-21T09:17:30.696Z,18.67
2018-07-21T09:20:01.786Z,18.53
2018-07-21T09:22:32.759Z,18.46
2018-07-21T09:25:04.052Z,18.45
2018-07-21T09:27:35.185Z,18.36
2018-07-21T09:30:06.393Z,18.52
2018-07-21T09:32:37.623Z,18.46
2018-07-21T09:35:11.172Z,18.50
2018-07-21T09:37:42.152Z,18.50
2018-07-21T09:40:13.543Z,18.45
2018-07-21T09:42:44.432Z,18.51
2018-07-21T09:45:17.476Z,18.34
2018-07-21T09:47:48.469Z,18.45
2018-07-21T09:50:19.948Z,18.46
2018-07-21T09:52:50.940Z,18.49
2018-07-21T09:55:21.988Z,18.41
2018-07-21T09:57:52.980Z,18.48
2018-07-21T10:00:29.219Z,18.41
2018-07-21T10:03:02.356Z,18.39
2018-07-21T10:05:33.921Z,18.36
2018-07-21T10:08:06.697Z,18.29
2018-07-21T10:10:38.133Z,18.34
2018-07-21T10:13:11.165Z,18.23
2018-07-21T10:15:41.817Z,18.28
2018-07-21T10:18:13.138Z,18.25
2018-07-21T10:20:44.048Z,18.23
2018-07-21T10:23:14.869Z,18.22
2018-07-21T10:25:51.128Z,18.23
2018-07-21T10:28:27.115Z,18.31
2018-07-21T10:30:58.162Z,18.36
2018-07-21T10:33:29.109Z,18.41
2018-07-21T10:36:00.203Z,18.39
2018-07-21T10:38:31.111Z,18.43
2018-07-21T10:41:03.230Z,18.48
2018-07-21T10:43:37.868Z,18.38
2018-07-21T10:46:09.633Z,18.53
2018-07-21T10:48:40.686Z,18.55
2018-07-21T10:51:11.715Z,18.49
2018-07-21T10:53:43.082Z,18.58
2018-07-21T10:56:14.651Z,18.65
2018-07-21T10:58:45.863Z,18.59
2018-07-21T11:01:16.827Z,18.66
2018-07-21T11:03:47.787Z,18.63
2018-07-21T11:06:19.023Z,18.68
2018-07-21T11:08:50.185Z,18.71
2018-07-21T11:11:21.330Z,18.77
2018-07-21T11:13:52.888Z,18.79
2018-07-21T11:16:24.036Z,18.81
2018-07-21T11:18:56.066Z,18.63
2018-07-21T11:21:27.670Z,18.72
2018-07-21T11:23:58.721Z,18.85
2018-07-21T11:26:29.788Z,18.82
2018-07-21T11:29:01.104Z,18.85
2018-07-21T11:31:32.334Z,18.65
2018-07-21T11:34:03.627Z,18.76
2018-07-21T11:36:34.592Z,18.71
2018-07-21T11:39:07.667Z,18.69
2018-07-21T11:41:38.483Z,18.76
2018-07-21T11:44:10.331Z,18.84
2018-07-21T11:46:41.227Z,18.80
2018-07-21T11:49:12.613Z,18.76
2018-07-21T11:51:43.720Z,18.83
2018-07-21T11:54:15.105Z,18.89
2018-07-21T11:56:46.308Z,18.95
2018-07-21T11:59:17.444Z,19.00
2018-07-21T12:01:48.804Z,18.98
2018-07-21T12:04:19.782Z,19.06
2018-07-21T12:06:50.649Z,19.10
2018-07-21T12:09:21.605Z,19.01
2018-07-21T12:11:52.597Z,19.09
2018-07-21T12:14:24.080Z,18.98
2018-07-21T12:16:55.476Z,18.91
2018-07-21T12:19:26.824Z,18.88
2018-07-21T12:21:57.977Z,18.87
2018-07-21T12:24:29.190Z,18.95
2018-07-21T12:27:01.172Z,19.01
2018-07-21T12:29:32.164Z,19.03
2018-07-21T12:32:04.243Z,19.06
2018-07-21T12:34:35.889Z,18.99
2018-07-21T12:37:07.492Z,19.13
2018-07-21T12:39:38.475Z,19.16
2018-07-21T12:42:09.829Z,19.21
2018-07-21T12:44:41.906Z,19.23
2018-07-21T12:47:13.053Z,19.44
2018-07-21T12:49:44.119Z,19.38
2018-07-21T12:52:15.566Z,19.43
2018-07-21T12:54:46.967Z,19.27
2018-07-21T12:57:18.956Z,19.23
2018-07-21T12:59:56.284Z,19.19
2018-07-21T13:02:30.568Z,18.92
2018-07-21T13:05:02.224Z,19.08
2018-07-21T13:07:34.029Z,18.83
2018-07-21T13:10:06.896Z,19.00
2018-07-21T13:12:38.244Z,18.81
2018-07-21T13:15:09.659Z,19.20
2018-07-21T13:17:40.987Z,19.23
2018-07-21T13:20:13.973Z,18.76
2018-07-21T13:22:45.544Z,19.09
2018-07-21T13:25:16.696Z,18.99
2018-07-21T13:27:47.822Z,18.98
2018-07-21T13:30:18.835Z,19.07
2018-07-21T13:32:49.754Z,19.13
2018-07-21T13:35:22.893Z,19.08
2018-07-21T13:38:02.238Z,19.14
2018-07-21T13:40:35.040Z,19.37
2018-07-21T13:43:07.491Z,19.33
2018-07-21T13:45:38.710Z,19.42
2018-07-21T13:48:10.857Z,19.45
2018-07-21T13:50:41.842Z,19.20
2018-07-21T13:53:13.406Z,19.08
2018-07-21T13:55:44.420Z,19.32
2018-07-21T13:58:15.646Z,19.38
2018-07-21T14:00:46.916Z,19.56
2018-07-21T14:03:17.953Z,19.46
2018-07-21T14:05:48.971Z,19.75
2018-07-21T14:08:20.301Z,19.68
2018-07-21T14:10:51.744Z,19.71
2018-07-21T14:13:22.994Z,19.83
2018-07-21T14:15:53.867Z,19.73
2018-07-21T14:18:24.853Z,19.76
2018-07-21T14:20:57.109Z,19.65
2018-07-21T14:23:29.099Z,19.35
2018-07-21T14:26:00.773Z,19.50
2018-07-21T14:28:32.671Z,19.41
2018-07-21T14:31:03.721Z,19.55
2018-07-21T14:33:34.978Z,19.44
2018-07-21T14:36:06.180Z,19.64
2018-07-21T14:38:37.140Z,19.67
2018-07-21T14:41:08.190Z,19.47
2018-07-21T14:43:39.255Z,19.66
2018-07-21T14:46:10.369Z,19.74
2018-07-21T14:48:41.436Z,19.49
2018-07-21T14:51:16.417Z,19.54
2018-07-21T14:53:49.846Z,19.69
2018-07-21T14:56:22.169Z,19.57
2018-07-21T14:58:53.343Z,19.83
2018-07-21T15:01:24.542Z,19.83
2018-07-21T15:03:55.814Z,19.85
2018-07-21T15:06:26.838Z,19.91
2018-07-21T15:08:58.420Z,19.85
2018-07-21T15:11:30.215Z,20.01
2018-07-21T15:14:02.183Z,20.03
2018-07-21T15:16:33.896Z,19.94
2018-07-21T15:19:05.557Z,19.97
2018-07-21T15:21:38.877Z,20.03
2018-07-21T15:24:11.618Z,20.01
2018-07-21T15:26:44.348Z,20.22
2018-07-21T15:29:17.504Z,20.12
2018-07-21T15:31:55.099Z,20.17
2018-07-21T15:34:28.103Z,20.18
2018-07-21T15:36:59.407Z,20.34
2018-07-21T15:39:31.175Z,20.40
2018-07-21T15:42:04.463Z,20.36
2018-07-21T15:44:36.048Z,20.22
2018-07-21T15:47:07.624Z,20.37
2018-07-21T15:49:38.884Z,20.41
2018-07-21T15:52:11.621Z,20.48
2018-07-21T15:54:43.373Z,20.56
2018-07-21T15:57:14.999Z,20.70
2018-07-21T15:59:46.576Z,20.74
2018-07-21T16:02:19.101Z,20.68
2018-07-21T16:04:50.232Z,20.62
2018-07-21T16:07:21.667Z,20.64
2018-07-21T16:09:53.291Z,20.56
2018-07-21T16:12:24.728Z,20.51
2018-07-21T16:14:56.004Z,20.46
2018-07-21T16:17:27.228Z,20.58
2018-07-21T16:19:58.882Z,20.50
2018-07-21T16:22:30.450Z,20.59
2018-07-21T16:25:03.421Z,20.61
2018-07-21T16:27:35.070Z,20.38
2018-07-21T16:30:06.869Z,20.48
2018-07-21T16:32:40.588Z,20.47
2018-07-21T16:35:14.923Z,20.43
2018-07-21T16:37:47.314Z,20.36
2018-07-21T16:40:19.431Z,20.38
2018-07-21T16:42:51.011Z,20.33
2018-07-21T16:45:22.487Z,20.37
2018-07-21T16:47:53.900Z,20.29
2018-07-21T16:50:25.183Z,20.45
2018-07-21T16:52:57.457Z,20.43
2018-07-21T16:55:29.106Z,20.28
2018-07-21T16:58:04.452Z,20.31
2018-07-21T17:00:36.985Z,20.17
2018-07-21T17:03:10.073Z,20.31
2018-07-21T17:05:41.724Z,20.24
2018-07-21T17:08:13.407Z,20.48
2018-07-21T17:10:45.046Z,20.12
2018-07-21T17:13:16.969Z,20.21
2018-07-21T17:15:48.332Z,20.21
2018-07-21T17:18:19.643Z,20.24
2018-07-21T17:20:51.902Z,20.13
2018-07-21T17:23:23.512Z,20.10
2018-07-21T17:25:55.417Z,20.17
2018-07-21T17:28:27.006Z,20.09
2018-07-21T17:30:58.856Z,20.65
2018-07-21T17:33:30.759Z,20.43
2018-07-21T17:36:01.901Z,20.37
2018-07-21T17:38:33.615Z,20.12
2018-07-21T17:41:05.074Z,20.06
2018-07-21T17:43:40.939Z,19.98
2018-07-21T17:46:19.863Z,20.00
2018-07-21T17:48:52.642Z,19.91
2018-07-21T17:51:24.079Z,19.91
2018-07-21T17:54:09.340Z,19.87
2018-07-21T17:56:41.134Z,19.87
2018-07-21T17:59:12.680Z,19.90
2018-07-21T18:01:44.207Z,19.83
2018-07-21T18:04:15.880Z,19.85
2018-07-21T18:06:46.999Z,20.02
2018-07-21T18:09:18.456Z,20.04
2018-07-21T18:11:50.513Z,19.97
2018-07-21T18:14:22.087Z,19.81
2018-07-21T18:16:53.480Z,19.82
2018-07-21T18:19:24.787Z,19.69
2018-07-21T18:21:56.030Z,19.70
2018-07-21T18:24:27.467Z,19.73
2018-07-21T18:26:59.224Z,19.73
2018-07-21T18:29:30.588Z,19.84
2018-07-21T18:32:03.199Z,19.79
2018-07-21T18:34:34.520Z,19.68
2018-07-21T18:37:05.882Z,19.61
2018-07-21T18:39:38.036Z,19.55
2018-07-21T18:42:09.885Z,19.57
2018-07-21T18:44:41.255Z,19.51
2018-07-21T18:47:12.589Z,19.58
2018-07-21T18:49:43.960Z,19.56
2018-07-21T18:52:15.621Z,19.45
2018-07-21T18:54:48.384Z,19.46
2018-07-21T18:57:19.817Z,19.43
2018-07-21T18:59:51.022Z,19.43
2018-07-21T19:02:22.673Z,19.37
2018-07-21T19:04:53.998Z,19.41
2018-07-21T19:07:25.849Z,19.46
2018-07-21T19:09:57.355Z,19.50
2018-07-21T19:12:33.652Z,19.44
2018-07-21T19:15:05.992Z,19.37
2018-07-21T19:17:37.432Z,19.35
2018-07-21T19:20:14.091Z,19.31
2018-07-21T19:22:45.512Z,19.34
2018-07-21T19:25:23.818Z,19.32
2018-07-21T19:27:55.968Z,19.32
2018-07-21T19:30:27.435Z,19.36
2018-07-21T19:32:59.186Z,19.42
2018-07-21T19:35:31.983Z,19.23
2018-07-21T19:38:04.544Z,19.18
2018-07-21T19:40:36.092Z,19.19
2018-07-21T19:43:08.301Z,19.13
2018-07-21T19:45:40.662Z,19.07
2018-07-21T19:48:13.084Z,19.09
2018-07-21T19:50:44.458Z,19.09
2018-07-21T19:53:16.075Z,19.13
2018-07-21T19:55:48.213Z,19.08
2018-07-21T19:58:19.977Z,18.99
2018-07-21T20:00:51.344Z,19.10
2018-07-21T20:03:22.813Z,19.06
2018-07-21T20:06:00.298Z,19.09
2018-07-21T20:08:32.036Z,19.02
2018-07-21T20:11:03.471Z,18.95
2018-07-21T20:13:34.812Z,19.19
2018-07-21T20:16:06.603Z,19.13
2018-07-21T20:18:38.460Z,19.05
2018-07-21T20:21:09.684Z,19.06
2018-07-21T20:23:41.171Z,19.16
2018-07-21T20:26:12.427Z,19.10
2018-07-21T20:28:44.214Z,19.06
2018-07-21T20:31:15.986Z,19.03
2018-07-21T20:33:47.398Z,18.96
2018-07-21T20:36:18.556Z,18.93
2018-07-21T20:38:49.752Z,18.84
2018-07-21T20:41:21.491Z,18.81
2018-07-21T20:43:53.055Z,18.92
2018-07-21T20:46:25.062Z,19.08
2018-07-21T20:48:56.501Z,19.11
2018-07-21T20:51:28.212Z,18.93
2018-07-21T20:54:00.271Z,18.82
2018-07-21T20:56:31.772Z,18.58
2018-07-21T20:59:03.216Z,18.52
2018-07-21T21:01:34.642Z,18.42
2018-07-21T21:04:06.459Z,18.40
2018-07-21T21:06:38.458Z,18.40
2018-07-21T21:09:11.396Z,18.40
2018-07-21T21:11:42.876Z,18.39
2018-07-21T21:14:14.689Z,18.41
2018-07-21T21:16:45.976Z,18.41
2018-07-21T21:19:17.360Z,18.49
2018-07-21T21:21:48.993Z,18.68
2018-07-21T21:24:20.407Z,18.51
2018-07-21T21:26:51.745Z,18.46
2018-07-21T21:29:23.590Z,18.45
2018-07-21T21:31:54.847Z,18.59
2018-07-21T21:34:26.041Z,18.46
2018-07-21T21:36:57.579Z,18.53
2018-07-21T21:39:28.887Z,18.55
2018-07-21T21:42:00.190Z,18.52
2018-07-21T21:44:33.096Z,18.34
2018-07-21T21:47:04.407Z,18.13
2018-07-21T21:49:35.612Z,18.01
2018-07-21T21:52:06.883Z,18.16
2018-07-21T21:54:38.320Z,18.15
2018-07-21T21:57:09.746Z,18.26
2018-07-21T21:59:41.068Z,18.18
2018-07-21T22:02:13.038Z,18.26
2018-07-21T22:04:44.408Z,18.05
2018-07-21T22:07:15.740Z,18.06
2018-07-21T22:09:47.710Z,17.92
2018-07-21T22:12:19.027Z,17.90
2018-07-21T22:14:50.103Z,18.18
2018-07-21T22:17:21.340Z,18.23
2018-07-21T22:19:53.290Z,18.17
2018-07-21T22:22:24.333Z,18.09
2018-07-21T22:24:55.133Z,18.09
2018-07-21T22:27:26.002Z,18.12
2018-07-21T22:29:57.299Z,18.11
2018-07-21T22:32:28.212Z,18.08
2018-07-21T22:34:59.248Z,18.07
2018-07-21T22:37:30.446Z,17.99
2018-07-21T22:40:02.051Z,18.20
2018-07-21T22:42:33.174Z,18.25
2018-07-21T22:45:04.446Z,17.98
2018-07-21T22:47:35.418Z,18.01
2018-07-21T22:50:07.955Z,18.02
2018-07-21T22:52:40.253Z,17.95
2018-07-21T22:55:14.005Z,17.82
2018-07-21T22:57:45.003Z,17.80
2018-07-21T23:00:16.170Z,17.86
2018-07-21T23:02:47.325Z,17.83
2018-07-21T23:05:18.666Z,17.75
2018-07-21T23:07:50.108Z,17.71
2018-07-21T23:10:21.431Z,17.76
2018-07-21T23:12:53.146Z,17.85
2018-07-21T23:15:24.480Z,17.80
2018-07-21T23:17:55.502Z,17.73
2018-07-21T23:20:31.449Z,17.80
2018-07-21T23:23:07.707Z,17.91
2018-07-21T23:25:39.212Z,17.87
2018-07-21T23:28:12.662Z,17.88
2018-07-21T23:30:43.607Z,17.78
2018-07-21T23:33:15.129Z,17.73
2018-07-21T23:35:46.912Z,17.82
2018-07-21T23:38:19.287Z,17.79
2018-07-21T23:40:50.539Z,17.58
2018-07-21T23:43:21.835Z,17.60
2018-07-21T23:45:53.134Z,17.61
2018-07-21T23:48:24.270Z,17.73
2018-07-21T23:50:55.741Z,17.79
2018-07-21T23:53:27.479Z,17.84
2018-07-21T23:55:59.111Z,17.85
2018-07-21T23:58:31.142Z,17.75
